sensor_id;sensor_type;location;lat;lon;timestamp;pressure;altitude;pressure_sealevel;temperature;humidity
23677;BME280;31493;49.058;12.190;2024-02-04T00:01:34;96954.50;;;5.08;100.00
23677;BME280;31493;49.058;12.190;2024-02-04T00:04:01;96964.56;;;5.14;100.00
23677;BME280;31493;49.058;12.190;2024-02-04T00:06:28;96954.28;;;5.14;100.00
23677;BME280;31493;49.058;12.190;2024-02-04T00:08:55;96950.63;;;4.97;100.00
23677;BME280;31493;49.058;12.190;2024-02-04T00:11:24;96947.88;;;5.01;100.00
23677;BME280;31493;49.058;12.190;2024-02-04T00:13:51;96914.03;;;4.88;100.00
23677;BME280;31493;49.058;12.190;2024-02-04T00:16:18;96922.38;;;4.97;100.00
23677;BME280;31493;49.058;12.190;2024-02-04T00:18:45;96934.25;;;4.99;100.00
23677;BME280;31493;49.058;12.190;2024-02-04T00:21:12;96923.44;;;4.89;100.00
23677;BME280;31493;49.058;12.190;2024-02-04T00:23:39;96939.53;;;4.96;100.00
23677;BME280;31493;49.058;12.190;2024-02-04T00:26:06;96943.09;;;5.15;100.00
23677;BME280;31493;49.058;12.190;2024-02-04T00:28:35;96937.78;;;5.20;100.00
23677;BME280;31493;49.058;12.190;2024-02-04T00:31:02;96928.13;;;5.03;100.00
23677;BME280;31493;49.058;12.190;2024-02-04T00:33:29;96935.66;;;5.08;100.00
23677;BME280;31493;49.058;12.190;2024-02-04T00:35:56;96925.88;;;5.17;100.00
23677;BME280;31493;49.058;12.190;2024-02-04T00:38:23;96925.25;;;5.11;100.00
23677;BME280;31493;49.058;12.190;2024-02-04T00:40:50;96918.84;;;4.99;100.00
23677;BME280;31493;49.058;12.190;2024-02-04T00:43:20;96930.41;;;5.11;100.00
23677;BME280;31493;49.058;12.190;2024-02-04T00:45:48;96925.19;;;5.12;100.00
23677;BME280;31493;49.058;12.190;2024-02-04T00:48:15;96920.13;;;5.11;100.00
23677;BME280;31493;49.058;12.190;2024-02-04T00:50:42;96924.59;;;5.06;100.00
23677;BME280;31493;49.058;12.190;2024-02-04T00:53:09;96912.56;;;5.06;100.00
23677;BME280;31493;49.058;12.190;2024-02-04T00:55:36;96914.81;;;5.15;100.00
23677;BME280;31493;49.058;12.190;2024-02-04T00:58:03;96922.97;;;5.27;100.00
23677;BME280;31493;49.058;12.190;2024-02-04T01:00:30;96914.88;;;5.14;100.00
23677;BME280;31493;49.058;12.190;2024-02-04T01:02:59;96907.72;;;5.22;100.00
23677;BME280;31493;49.058;12.190;2024-02-04T01:05:26;96927.53;;;5.42;100.00
23677;BME280;31493;49.058;12.190;2024-02-04T01:07:53;96927.09;;;5.31;100.00
23677;BME280;31493;49.058;12.190;2024-02-04T01:10:20;96939.72;;;5.37;100.00
23677;BME280;31493;49.058;12.190;2024-02-04T01:12:47;96930.72;;;5.25;100.00
23677;BME280;31493;49.058;12.190;2024-02-04T01:15:14;96932.19;;;5.32;100.00
23677;BME280;31493;49.058;12.190;2024-02-04T01:17:41;96921.94;;;5.31;100.00
23677;BME280;31493;49.058;12.190;2024-02-04T01:20:10;96934.78;;;5.32;100.00
23677;BME280;31493;49.058;12.190;2024-02-04T01:22:37;96920.81;;;5.38;100.00
23677;BME280;31493;49.058;12.190;2024-02-04T01:25:04;96922.69;;;5.34;100.00
23677;BME280;31493;49.058;12.190;2024-02-04T01:27:32;96914.13;;;5.34;100.00
23677;BME280;31493;49.058;12.190;2024-02-04T01:29:59;96917.47;;;5.36;100.00
23677;BME280;31493;49.058;12.190;2024-02-04T01:32:26;96929.66;;;5.31;100.00
23677;BME280;31493;49.058;12.190;2024-02-04T01:34:53;96919.22;;;5.35;100.00
23677;BME280;31493;49.058;12.190;2024-02-04T01:37:21;96913.91;;;5.40;100.00
23677;BME280;31493;49.058;12.190;2024-02-04T01:39:49;96920.13;;;5.34;100.00
23677;BME280;31493;49.058;12.190;2024-02-04T01:42:16;96910.50;;;5.39;100.00
23677;BME280;31493;49.058;12.190;2024-02-04T01:44:43;96929.09;;;5.46;100.00
23677;BME280;31493;49.058;12.190;2024-02-04T01:47:10;96918.38;;;5.35;100.00
23677;BME280;31493;49.058;12.190;2024-02-04T01:49:37;96929.34;;;5.40;100.00
23677;BME280;31493;49.058;12.190;2024-02-04T01:52:05;96918.16;;;5.41;100.00
23677;BME280;31493;49.058;12.190;2024-02-04T01:54:37;96924.25;;;5.38;100.00
23677;BME280;31493;49.058;12.190;2024-02-04T01:57:06;96917.78;;;5.50;100.00
23677;BME280;31493;49.058;12.190;2024-02-04T01:59:33;96910.78;;;5.54;100.00
23677;BME280;31493;49.058;12.190;2024-02-04T02:02:00;96899.25;;;5.42;100.00
23677;BME280;31493;49.058;12.190;2024-02-04T02:04:27;96894.34;;;5.58;100.00
23677;BME280;31493;49.058;12.190;2024-02-04T02:06:55;96892.97;;;5.49;100.00
23677;BME280;31493;49.058;12.190;2024-02-04T02:09:22;96882.13;;;5.41;100.00
23677;BME280;31493;49.058;12.190;2024-02-04T02:11:54;96880.91;;;5.51;100.00
23677;BME280;31493;49.058;12.190;2024-02-04T02:14:26;96887.16;;;5.66;100.00
23677;BME280;31493;49.058;12.190;2024-02-04T02:16:57;96885.97;;;5.53;100.00
23677;BME280;31493;49.058;12.190;2024-02-04T02:19:39;96885.97;;;5.53;100.00
23677;BME280;31493;49.058;12.190;2024-02-04T02:22:17;96887.47;;;5.58;100.00
23677;BME280;31493;49.058;12.190;2024-02-04T02:24:51;96869.09;;;5.45;100.00
23677;BME280;31493;49.058;12.190;2024-02-04T02:27:18;96877.75;;;5.43;100.00
23677;BME280;31493;49.058;12.190;2024-02-04T02:29:45;96889.91;;;5.39;100.00
23677;BME280;31493;49.058;12.190;2024-02-04T02:32:12;96882.19;;;5.39;100.00
23677;BME280;31493;49.058;12.190;2024-02-04T02:34:39;96871.69;;;5.45;100.00
23677;BME280;31493;49.058;12.190;2024-02-04T02:37:15;96879.75;;;5.58;100.00
23677;BME280;31493;49.058;12.190;2024-02-04T02:39:49;96887.81;;;5.49;100.00
23677;BME280;31493;49.058;12.190;2024-02-04T02:42:22;96892.44;;;5.41;100.00
23677;BME280;31493;49.058;12.190;2024-02-04T02:44:49;96899.13;;;5.45;100.00
23677;BME280;31493;49.058;12.190;2024-02-04T02:47:17;96900.81;;;5.46;100.00
23677;BME280;31493;49.058;12.190;2024-02-04T02:49:44;96902.66;;;5.42;100.00
23677;BME280;31493;49.058;12.190;2024-02-04T02:52:11;96904.38;;;5.42;100.00
23677;BME280;31493;49.058;12.190;2024-02-04T02:54:38;96886.38;;;5.42;100.00
23677;BME280;31493;49.058;12.190;2024-02-04T02:57:06;96894.56;;;5.30;100.00
23677;BME280;31493;49.058;12.190;2024-02-04T02:59:33;96898.09;;;5.49;100.00
23677;BME280;31493;49.058;12.190;2024-02-04T03:02:01;96895.22;;;5.35;100.00
23677;BME280;31493;49.058;12.190;2024-02-04T03:04:28;96898.16;;;5.47;100.00
23677;BME280;31493;49.058;12.190;2024-02-04T03:06:55;96896.06;;;5.35;100.00
23677;BME280;31493;49.058;12.190;2024-02-04T03:09:22;96902.66;;;5.42;100.00
23677;BME280;31493;49.058;12.190;2024-02-04T03:11:49;96897.34;;;5.47;100.00
23677;BME280;31493;49.058;12.190;2024-02-04T03:14:18;96901.22;;;5.35;100.00
23677;BME280;31493;49.058;12.190;2024-02-04T03:16:45;96911.31;;;5.40;100.00
23677;BME280;31493;49.058;12.190;2024-02-04T03:19:12;96918.16;;;5.41;100.00
23677;BME280;31493;49.058;12.190;2024-02-04T03:21:39;96915.75;;;5.36;100.00
23677;BME280;31493;49.058;12.190;2024-02-04T03:24:06;96919.03;;;5.40;100.00
23677;BME280;31493;49.058;12.190;2024-02-04T03:26:33;96913.22;;;5.35;100.00
23677;BME280;31493;49.058;12.190;2024-02-04T03:29:00;96920.81;;;5.38;100.00
23677;BME280;31493;49.058;12.190;2024-02-04T03:31:31;96920.13;;;5.34;100.00
23677;BME280;31493;49.058;12.190;2024-02-04T03:33:58;96923.44;;;5.36;100.00
23677;BME280;31493;49.058;12.190;2024-02-04T03:36:25;96912.88;;;5.44;100.00
23677;BME280;31493;49.058;12.190;2024-02-04T03:38:52;96924.25;;;5.38;100.00
23677;BME280;31493;49.058;12.190;2024-02-04T03:41:20;96923.34;;;5.39;100.00
23677;BME280;31493;49.058;12.190;2024-02-04T03:43:47;96926.31;;;5.29;100.00
23677;BME280;31493;49.058;12.190;2024-02-04T03:46:14;96904.44;;;5.40;100.00
23677;BME280;31493;49.058;12.190;2024-02-04T03:48:43;96900.06;;;5.42;100.00
23677;BME280;31493;49.058;12.190;2024-02-04T03:51:14;96900.81;;;5.46;100.00
23677;BME280;31493;49.058;12.190;2024-02-04T03:53:41;96911.09;;;5.46;100.00
23677;BME280;31493;49.058;12.190;2024-02-04T03:56:08;96896.72;;;5.40;100.00
23677;BME280;31493;49.058;12.190;2024-02-04T03:58:35;96897.88;;;5.33;100.00
23677;BME280;31493;49.058;12.190;2024-02-04T04:01:03;96901.94;;;5.39;100.00
23677;BME280;31493;49.058;12.190;2024-02-04T04:03:30;96896.78;;;5.39;100.00
23677;BME280;31493;49.058;12.190;2024-02-04T04:05:58;96891.91;;;5.31;100.00
23677;BME280;31493;49.058;12.190;2024-02-04T04:08:25;96888.88;;;5.43;100.00
23677;BME280;31493;49.058;12.190;2024-02-04T04:10:52;96882.97;;;5.41;100.00
23677;BME280;31493;49.058;12.190;2024-02-04T04:13:19;96886.28;;;5.45;100.00
23677;BME280;31493;49.058;12.190;2024-02-04T04:15:46;96878.38;;;5.28;100.00
23677;BME280;31493;49.058;12.190;2024-02-04T04:18:13;96888.88;;;5.22;100.00
23677;BME280;31493;49.058;12.190;2024-02-04T04:20:40;96885.63;;;5.16;100.00
23677;BME280;31493;49.058;12.190;2024-02-04T04:23:09;96898.69;;;5.34;100.00
23677;BME280;31493;49.058;12.190;2024-02-04T04:25:36;96911.50;;;5.35;100.00
23677;BME280;31493;49.058;12.190;2024-02-04T04:28:03;96909.66;;;5.39;100.00
23677;BME280;31493;49.058;12.190;2024-02-04T04:30:30;96895.59;;;5.47;100.00
23677;BME280;31493;49.058;12.190;2024-02-04T04:32:57;96890.09;;;5.35;100.00
23677;BME280;31493;49.058;12.190;2024-02-04T04:35:25;96899.53;;;5.34;100.00
23677;BME280;31493;49.058;12.190;2024-02-04T04:37:52;96900.91;;;5.43;100.00
23677;BME280;31493;49.058;12.190;2024-02-04T04:40:20;96899.41;;;5.37;100.00
23677;BME280;31493;49.058;12.190;2024-02-04T04:42:47;96910.06;;;5.50;100.00
23677;BME280;31493;49.058;12.190;2024-02-04T04:45:14;96893.56;;;5.34;100.00
23677;BME280;31493;49.058;12.190;2024-02-04T04:47:42;96900.75;;;5.47;100.00
23677;BME280;31493;49.058;12.190;2024-02-04T04:50:09;96894.75;;;5.47;100.00
23677;BME280;31493;49.058;12.190;2024-02-04T04:52:36;96899.31;;;5.40;100.00
23677;BME280;31493;49.058;12.190;2024-02-04T04:55:03;96893.25;;;5.41;100.00
23677;BME280;31493;49.058;12.190;2024-02-04T04:57:32;96893.63;;;5.54;100.00
23677;BME280;31493;49.058;12.190;2024-02-04T04:59:59;96898.56;;;5.37;100.00
23677;BME280;31493;49.058;12.190;2024-02-04T05:02:32;96901.97;;;5.37;100.00
23677;BME280;31493;49.058;12.190;2024-02-04T05:04:59;96898.63;;;5.35;100.00
23677;BME280;31493;49.058;12.190;2024-02-04T05:07:26;96897.50;;;5.42;100.00
23677;BME280;31493;49.058;12.190;2024-02-04T05:09:53;96901.38;;;5.31;100.00
23677;BME280;31493;49.058;12.190;2024-02-04T05:12:20;96903.09;;;5.30;100.00
23677;BME280;31493;49.058;12.190;2024-02-04T05:14:49;96899.00;;;5.26;100.00
23677;BME280;31493;49.058;12.190;2024-02-04T05:17:16;96884.09;;;5.34;100.00
23677;BME280;31493;49.058;12.190;2024-02-04T05:19:43;96885.78;;;5.35;100.00
23677;BME280;31493;49.058;12.190;2024-02-04T05:22:10;96896.53;;;5.23;100.00
23677;BME280;31493;49.058;12.190;2024-02-04T05:24:37;96885.41;;;5.23;100.00
23677;BME280;31493;49.058;12.190;2024-02-04T05:27:04;96883.38;;;5.31;100.00
23677;BME280;31493;49.058;12.190;2024-02-04T05:29:31;96882.59;;;5.29;100.00
23677;BME280;31493;49.058;12.190;2024-02-04T05:32:00;96879.06;;;5.31;100.00
23677;BME280;31493;49.058;12.190;2024-02-04T05:34:27;96886.16;;;5.26;100.00
23677;BME280;31493;49.058;12.190;2024-02-04T05:36:56;96872.19;;;5.32;100.00
23677;BME280;31493;49.058;12.190;2024-02-04T05:39:23;96883.44;;;5.29;100.00
23677;BME280;31493;49.058;12.190;2024-02-04T05:41:50;96881.63;;;5.31;100.00
23677;BME280;31493;49.058;12.190;2024-02-04T05:44:17;96881.84;;;5.27;100.00
23677;BME280;31493;49.058;12.190;2024-02-04T05:46:44;96885.34;;;5.24;100.00
23677;BME280;31493;49.058;12.190;2024-02-04T05:49:13;96883.56;;;5.26;100.00
23677;BME280;31493;49.058;12.190;2024-02-04T05:51:41;96887.34;;;5.39;100.00
23677;BME280;31493;49.058;12.190;2024-02-04T05:54:08;96880.94;;;5.28;100.00
23677;BME280;31493;49.058;12.190;2024-02-04T05:56:36;96879.19;;;5.28;100.00
23677;BME280;31493;49.058;12.190;2024-02-04T05:59:03;96879.72;;;5.36;100.00
23677;BME280;31493;49.058;12.190;2024-02-04T06:01:30;96875.28;;;5.18;100.00
23677;BME280;31493;49.058;12.190;2024-02-04T06:03:57;96880.69;;;5.34;100.00
23677;BME280;31493;49.058;12.190;2024-02-04T06:06:25;96885.19;;;5.29;100.00
23677;BME280;31493;49.058;12.190;2024-02-04T06:08:52;96881.41;;;5.15;100.00
23677;BME280;31493;49.058;12.190;2024-02-04T06:11:20;96889.47;;;5.28;100.00
23677;BME280;31493;49.058;12.190;2024-02-04T06:13:47;96879.66;;;5.16;100.00
23677;BME280;31493;49.058;12.190;2024-02-04T06:16:14;96891.69;;;5.15;100.00
23677;BME280;31493;49.058;12.190;2024-02-04T06:18:41;96881.09;;;5.23;100.00
23677;BME280;31493;49.058;12.190;2024-02-04T06:21:08;96883.84;;;5.18;100.00
23677;BME280;31493;49.058;12.190;2024-02-04T06:23:38;96906.25;;;5.38;100.00
23677;BME280;31493;49.058;12.190;2024-02-04T06:26:05;96893.72;;;5.29;100.00
23677;BME280;31493;49.058;12.190;2024-02-04T06:28:32;96894.72;;;5.25;100.00
23677;BME280;31493;49.058;12.190;2024-02-04T06:30:59;96886.25;;;5.23;100.00
23677;BME280;31493;49.058;12.190;2024-02-04T06:33:26;96900.38;;;5.11;100.00
23677;BME280;31493;49.058;12.190;2024-02-04T06:35:53;96893.13;;;5.23;100.00
23677;BME280;31493;49.058;12.190;2024-02-04T06:38:21;96897.22;;;5.05;100.00
23677;BME280;31493;49.058;12.190;2024-02-04T06:40:50;96898.31;;;5.21;100.00
23677;BME280;31493;49.058;12.190;2024-02-04T06:43:17;96888.66;;;5.04;100.00
23677;BME280;31493;49.058;12.190;2024-02-04T06:45:44;96883.28;;;5.10;100.00
23677;BME280;31493;49.058;12.190;2024-02-04T06:48:11;96869.66;;;5.08;100.00
23677;BME280;31493;49.058;12.190;2024-02-04T06:50:38;96878.53;;;5.00;100.00
23677;BME280;31493;49.058;12.190;2024-02-04T06:53:05;96865.00;;;4.95;100.00
23677;BME280;31493;49.058;12.190;2024-02-04T06:55:32;96879.88;;;5.10;100.00
23677;BME280;31493;49.058;12.190;2024-02-04T06:58:00;96876.09;;;4.97;100.00
23677;BME280;31493;49.058;12.190;2024-02-04T07:00:27;96892.56;;;5.14;100.00
23677;BME280;31493;49.058;12.190;2024-02-04T07:02:54;96886.31;;;4.98;100.00
23677;BME280;31493;49.058;12.190;2024-02-04T07:05:22;96887.75;;;5.05;100.00
23677;BME280;31493;49.058;12.190;2024-02-04T07:07:49;96882.63;;;5.05;100.00
23677;BME280;31493;49.058;12.190;2024-02-04T07:10:17;96875.88;;;5.03;100.00
23677;BME280;31493;49.058;12.190;2024-02-04T07:12:44;96885.03;;;5.10;100.00
23677;BME280;31493;49.058;12.190;2024-02-04T07:15:13;96885.88;;;5.10;100.00
23677;BME280;31493;49.058;12.190;2024-02-04T07:17:40;96877.41;;;5.07;100.00
23677;BME280;31493;49.058;12.190;2024-02-04T07:20:07;96878.03;;;5.13;100.00
23677;BME280;31493;49.058;12.190;2024-02-04T07:22:35;96884.03;;;5.14;100.00
23677;BME280;31493;49.058;12.190;2024-02-04T07:25:02;96882.09;;;5.19;100.00
23677;BME280;31493;49.058;12.190;2024-02-04T07:27:29;96883.50;;;5.28;100.00
23677;BME280;31493;49.058;12.190;2024-02-04T07:29:56;96882.78;;;5.24;100.00
23677;BME280;31493;49.058;12.190;2024-02-04T07:32:25;96885.19;;;5.29;100.00
23677;BME280;31493;49.058;12.190;2024-02-04T07:34:52;96865.06;;;5.16;100.00
23677;BME280;31493;49.058;12.190;2024-02-04T07:37:19;96871.53;;;5.27;100.00
23677;BME280;31493;49.058;12.190;2024-02-04T07:39:46;96871.25;;;5.34;100.00
23677;BME280;31493;49.058;12.190;2024-02-04T07:42:13;96882.47;;;5.32;100.00
23677;BME280;31493;49.058;12.190;2024-02-04T07:44:40;96886.16;;;5.26;100.00
23677;BME280;31493;49.058;12.190;2024-02-04T07:47:07;96887.16;;;5.44;100.00
23677;BME280;31493;49.058;12.190;2024-02-04T07:49:35;96889.25;;;5.56;100.00
23677;BME280;31493;49.058;12.190;2024-02-04T07:52:03;96891.19;;;5.51;100.00
23677;BME280;31493;49.058;12.190;2024-02-04T07:54:30;96891.00;;;5.34;100.00
23677;BME280;31493;49.058;12.190;2024-02-04T07:56:57;96877.22;;;5.35;100.00
23677;BME280;31493;49.058;12.190;2024-02-04T07:59:24;96885.72;;;5.37;100.00
23677;BME280;31493;49.058;12.190;2024-02-04T08:01:51;96880.28;;;5.44;100.00
23677;BME280;31493;49.058;12.190;2024-02-04T08:04:18;96887.44;;;5.36;100.00
23677;BME280;31493;49.058;12.190;2024-02-04T08:06:47;96879.44;;;5.44;100.00
23677;BME280;31493;49.058;12.190;2024-02-04T08:09:14;96881.38;;;5.39;100.00
23677;BME280;31493;49.058;12.190;2024-02-04T08:11:41;96862.09;;;5.27;100.00
23677;BME280;31493;49.058;12.190;2024-02-04T08:14:08;96868.03;;;5.51;100.00
23677;BME280;31493;49.058;12.190;2024-02-04T08:16:35;96875.16;;;5.44;100.00
23677;BME280;31493;49.058;12.190;2024-02-04T08:19:02;96859.03;;;5.61;100.00
23677;BME280;31493;49.058;12.190;2024-02-04T08:21:32;96851.97;;;5.66;100.00
23677;BME280;31493;49.058;12.190;2024-02-04T08:24:00;96856.63;;;5.57;100.00
23677;BME280;31493;49.058;12.190;2024-02-04T08:26:28;96863.22;;;5.42;100.00
23677;BME280;31493;49.058;12.190;2024-02-04T08:28:55;96861.09;;;5.53;100.00
23677;BME280;31493;49.058;12.190;2024-02-04T08:31:22;96865.38;;;5.74;100.00
23677;BME280;31493;49.058;12.190;2024-02-04T08:33:49;96849.56;;;5.62;100.00
23677;BME280;31493;49.058;12.190;2024-02-04T08:36:16;96860.53;;;5.67;100.00
23677;BME280;31493;49.058;12.190;2024-02-04T08:38:43;96857.78;;;5.71;100.00
23677;BME280;31493;49.058;12.190;2024-02-04T08:41:12;96871.97;;;5.82;100.00
23677;BME280;31493;49.058;12.190;2024-02-04T08:43:39;96859.09;;;5.82;100.00
23677;BME280;31493;49.058;12.190;2024-02-04T08:46:06;96855.88;;;5.77;100.00
23677;BME280;31493;49.058;12.190;2024-02-04T08:48:33;96857.47;;;5.79;100.00
23677;BME280;31493;49.058;12.190;2024-02-04T08:51:00;96862.13;;;5.91;100.00
23677;BME280;31493;49.058;12.190;2024-02-04T08:53:27;96873.63;;;5.83;100.00
23677;BME280;31493;49.058;12.190;2024-02-04T08:55:54;96858.63;;;5.92;100.00
23677;BME280;31493;49.058;12.190;2024-02-04T08:58:25;96861.47;;;5.86;100.00
23677;BME280;31493;49.058;12.190;2024-02-04T09:00:52;96867.28;;;6.12;100.00
23677;BME280;31493;49.058;12.190;2024-02-04T09:03:19;96848.41;;;6.11;100.00
23677;BME280;31493;49.058;12.190;2024-02-04T09:05:46;96866.59;;;6.08;100.00
23677;BME280;31493;49.058;12.190;2024-02-04T09:08:13;96851.53;;;6.19;100.00
23677;BME280;31493;49.058;12.190;2024-02-04T09:10:40;96853.88;;;6.24;100.00
23677;BME280;31493;49.058;12.190;2024-02-04T09:13:07;96837.94;;;6.16;100.00
23677;BME280;31493;49.058;12.190;2024-02-04T09:15:36;96853.19;;;6.20;100.00
23677;BME280;31493;49.058;12.190;2024-02-04T09:18:03;96863.75;;;6.35;100.00
23677;BME280;31493;49.058;12.190;2024-02-04T09:20:30;96864.53;;;6.37;100.00
23677;BME280;31493;49.058;12.190;2024-02-04T09:22:57;96877.66;;;6.51;100.00
23677;BME280;31493;49.058;12.190;2024-02-04T09:25:24;96870.38;;;6.40;100.00
23677;BME280;31493;49.058;12.190;2024-02-04T09:27:51;96867.19;;;6.54;100.00
23677;BME280;31493;49.058;12.190;2024-02-04T09:30:18;96859.00;;;6.25;100.00
23677;BME280;31493;49.058;12.190;2024-02-04T09:32:47;96868.91;;;6.35;100.00
23677;BME280;31493;49.058;12.190;2024-02-04T09:35:14;96873.78;;;6.41;100.00
23677;BME280;31493;49.058;12.190;2024-02-04T09:37:42;96872.84;;;6.43;100.00
23677;BME280;31493;49.058;12.190;2024-02-04T09:40:10;96862.19;;;6.51;100.00
23677;BME280;31493;49.058;12.190;2024-02-04T09:42:38;96875.28;;;6.46;100.00
23677;BME280;31493;49.058;12.190;2024-02-04T09:45:05;96854.66;;;6.46;100.00
23677;BME280;31493;49.058;12.190;2024-02-04T09:47:34;96872.06;;;6.62;100.00
23677;BME280;31493;49.058;12.190;2024-02-04T09:50:03;96852.00;;;6.48;100.00
23677;BME280;31493;49.058;12.190;2024-02-04T09:52:30;96847.34;;;6.76;100.00
23677;BME280;31493;49.058;12.190;2024-02-04T09:55:00;96844.72;;;6.58;100.00
23677;BME280;31493;49.058;12.190;2024-02-04T09:57:29;96839.69;;;6.54;100.00
23677;BME280;31493;49.058;12.190;2024-02-04T09:59:56;96843.19;;;6.53;100.00
23677;BME280;31493;49.058;12.190;2024-02-04T10:02:24;96845.03;;;6.70;100.00
23677;BME280;31493;49.058;12.190;2024-02-04T10:04:51;96842.09;;;6.78;100.00
23677;BME280;31493;49.058;12.190;2024-02-04T10:07:20;96862.72;;;6.78;100.00
23677;BME280;31493;49.058;12.190;2024-02-04T10:09:47;96857.53;;;6.79;100.00
23677;BME280;31493;49.058;12.190;2024-02-04T10:12:14;96866.34;;;6.74;100.00
23677;BME280;31493;49.058;12.190;2024-02-04T10:14:41;96844.13;;;6.90;100.00
23677;BME280;31493;49.058;12.190;2024-02-04T10:17:08;96855.69;;;6.81;100.00
23677;BME280;31493;49.058;12.190;2024-02-04T10:19:35;96844.41;;;7.03;100.00
23677;BME280;31493;49.058;12.190;2024-02-04T10:22:03;96847.50;;;6.92;100.00
23677;BME280;31493;49.058;12.190;2024-02-04T10:24:32;96825.81;;;6.96;100.00
23677;BME280;31493;49.058;12.190;2024-02-04T10:26:59;96826.25;;;7.06;100.00
23677;BME280;31493;49.058;12.190;2024-02-04T10:29:26;96825.81;;;6.96;100.00
23677;BME280;31493;49.058;12.190;2024-02-04T10:31:53;96819.88;;;7.13;100.00
23677;BME280;31493;49.058;12.190;2024-02-04T10:34:22;96814.03;;;7.09;100.00
23677;BME280;31493;49.058;12.190;2024-02-04T10:36:49;96815.22;;;7.02;100.00
23677;BME280;31493;49.058;12.190;2024-02-04T10:39:16;96805.72;;;7.03;100.00
23677;BME280;31493;49.058;12.190;2024-02-04T10:41:48;96795.97;;;7.09;100.00
23677;BME280;31493;49.058;12.190;2024-02-04T10:44:17;96807.34;;;7.05;100.00
23677;BME280;31493;49.058;12.190;2024-02-04T10:46:46;96785.66;;;7.09;100.00
23677;BME280;31493;49.058;12.190;2024-02-04T10:49:13;96816.09;;;7.20;100.00
23677;BME280;31493;49.058;12.190;2024-02-04T10:51:41;96822.31;;;7.16;100.00
23677;BME280;31493;49.058;12.190;2024-02-04T10:54:10;96806.91;;;7.15;100.00
23677;BME280;31493;49.058;12.190;2024-02-04T10:56:42;96830.25;;;7.30;100.00
23677;BME280;31493;49.058;12.190;2024-02-04T10:59:11;96823.56;;;7.45;100.00
23677;BME280;31493;49.058;12.190;2024-02-04T11:02:38;96810.03;;;7.40;100.00
23677;BME280;31493;49.058;12.190;2024-02-04T11:05:06;96810.13;;;7.39;100.00
23677;BME280;31493;49.058;12.190;2024-02-04T11:07:34;96799.38;;;7.48;100.00
23677;BME280;31493;49.058;12.190;2024-02-04T11:10:02;96786.53;;;7.46;100.00
23677;BME280;31493;49.058;12.190;2024-02-04T11:12:31;96793.31;;;7.49;100.00
23677;BME280;31493;49.058;12.190;2024-02-04T11:15:01;96778.81;;;7.64;100.00
23677;BME280;31493;49.058;12.190;2024-02-04T11:17:46;96786.94;;;7.56;100.00
23677;BME280;31493;49.058;12.190;2024-02-04T11:20:29;96781.16;;;7.68;100.00
23677;BME280;31493;49.058;12.190;2024-02-04T11:23:11;96774.25;;;7.69;100.00
23677;BME280;31493;49.058;12.190;2024-02-04T11:25:45;96766.97;;;7.59;100.00
23677;BME280;31493;49.058;12.190;2024-02-04T11:28:13;96758.94;;;7.48;100.00
23677;BME280;31493;49.058;12.190;2024-02-04T11:30:43;96771.25;;;7.78;100.00
23677;BME280;31493;49.058;12.190;2024-02-04T11:33:13;96775.59;;;7.58;100.00
23677;BME280;31493;49.058;12.190;2024-02-04T11:35:45;96763.47;;;7.43;100.00
23677;BME280;31493;49.058;12.190;2024-02-04T11:38:17;96767.44;;;7.31;100.00
23677;BME280;31493;49.058;12.190;2024-02-04T11:40:45;96770.81;;;7.51;100.00
23677;BME280;31493;49.058;12.190;2024-02-04T11:43:14;96765.78;;;7.30;100.00
23677;BME280;31493;49.058;12.190;2024-02-04T11:45:41;96762.16;;;7.52;100.00
23677;BME280;31493;49.058;12.190;2024-02-04T11:48:13;96766.34;;;7.37;100.00
23677;BME280;31493;49.058;12.190;2024-02-04T11:50:42;96750.78;;;7.39;100.00
23677;BME280;31493;49.058;12.190;2024-02-04T11:53:10;96744.03;;;7.36;100.00
23677;BME280;31493;49.058;12.190;2024-02-04T11:55:39;96750.41;;;7.46;100.00
23677;BME280;31493;49.058;12.190;2024-02-04T11:58:08;96756.25;;;7.50;100.00
23677;BME280;31493;49.058;12.190;2024-02-04T12:00:36;96745.03;;;7.51;100.00
23677;BME280;31493;49.058;12.190;2024-02-04T12:03:04;96751.25;;;7.28;100.00
23677;BME280;31493;49.058;12.190;2024-02-04T12:05:34;96727.56;;;7.39;100.00
23677;BME280;31493;49.058;12.190;2024-02-04T12:08:02;96749.94;;;7.38;100.00
23677;BME280;31493;49.058;12.190;2024-02-04T12:10:30;96732.31;;;7.29;100.00
23677;BME280;31493;49.058;12.190;2024-02-04T12:12:58;96730.06;;;7.21;100.00
23677;BME280;31493;49.058;12.190;2024-02-04T12:15:26;96723.34;;;7.19;100.00
23677;BME280;31493;49.058;12.190;2024-02-04T12:17:53;96712.84;;;7.22;100.00
23677;BME280;31493;49.058;12.190;2024-02-04T12:20:20;96707.78;;;7.20;100.00
23677;BME280;31493;49.058;12.190;2024-02-04T12:22:48;96706.16;;;7.37;100.00
23677;BME280;31493;49.058;12.190;2024-02-04T12:25:16;96704.50;;;7.36;100.00
23677;BME280;31493;49.058;12.190;2024-02-04T12:27:44;96690.34;;;7.25;100.00
23677;BME280;31493;49.058;12.190;2024-02-04T12:30:14;96691.56;;;7.18;100.00
23677;BME280;31493;49.058;12.190;2024-02-04T12:32:41;96687.06;;;7.22;100.00
23677;BME280;31493;49.058;12.190;2024-02-04T12:35:08;96697.16;;;7.26;100.00
23677;BME280;31493;49.058;12.190;2024-02-04T12:37:51;96698.69;;;7.30;100.00
23677;BME280;31493;49.058;12.190;2024-02-04T12:40:21;96696.41;;;7.24;100.00
23677;BME280;31493;49.058;12.190;2024-02-04T12:42:52;96687.72;;;7.44;100.00
23677;BME280;31493;49.058;12.190;2024-02-04T12:45:20;96685.94;;;7.27;100.00
23677;BME280;31493;49.058;12.190;2024-02-04T12:47:49;96681.13;;;7.39;100.00
23677;BME280;31493;49.058;12.190;2024-02-04T12:50:16;96671.72;;;7.38;100.00
23677;BME280;31493;49.058;12.190;2024-02-04T12:52:44;96676.88;;;7.38;100.00
23677;BME280;31493;49.058;12.190;2024-02-04T12:55:25;96662.41;;;7.33;100.00